sensor_id;sensor_type;location;lat;lon;timestamp;temperature;humidity
67502;SHT30;54349;52.528;19.760;2023-03-21T00:01:52;23.41;41.61
67502;SHT30;54349;52.528;19.760;2023-03-21T00:04:22;23.40;41.53
67502;SHT30;54349;52.528;19.760;2023-03-21T00:06:58;23.40;41.56
67502;SHT30;54349;52.528;19.760;2023-03-21T00:09:26;23.40;41.59
67502;SHT30;54349;52.528;19.760;2023-03-21T00:11:56;23.40;41.54
67502;SHT30;54349;52.528;19.760;2023-03-21T00:14:28;23.41;41.50
67502;SHT30;54349;52.528;19.760;2023-03-21T00:16:58;23.41;41.57
67502;SHT30;54349;52.528;19.760;2023-03-21T00:19:30;23.44;41.53
67502;SHT30;54349;52.528;19.760;2023-03-21T00:21:59;23.44;41.46
67502;SHT30;54349;52.528;19.760;2023-03-21T00:24:35;23.46;41.50
67502;SHT30;54349;52.528;19.760;2023-03-21T00:27:09;23.45;41.49
67502;SHT30;54349;52.528;19.760;2023-03-21T00:30:02;23.46;41.39
67502;SHT30;54349;52.528;19.760;2023-03-21T00:32:33;23.46;41.36
67502;SHT30;54349;52.528;19.760;2023-03-21T00:35:18;23.45;41.27
67502;SHT30;54349;52.528;19.760;2023-03-21T00:38:08;23.44;41.16
67502;SHT30;54349;52.528;19.760;2023-03-21T00:40:37;23.43;41.08
67502;SHT30;54349;52.528;19.760;2023-03-21T00:43:16;23.43;40.96
67502;SHT30;54349;52.528;19.760;2023-03-21T00:45:48;23.40;40.89
67502;SHT30;54349;52.528;19.760;2023-03-21T00:48:18;23.39;40.78
67502;SHT30;54349;52.528;19.760;2023-03-21T00:50:50;23.35;40.73
67502;SHT30;54349;52.528;19.760;2023-03-21T00:53:22;23.33;40.64
67502;SHT30;54349;52.528;19.760;2023-03-21T00:55:52;23.30;40.60
67502;SHT30;54349;52.528;19.760;2023-03-21T00:58:21;23.27;40.56
67502;SHT30;54349;52.528;19.760;2023-03-21T01:00:49;23.25;40.48
67502;SHT30;54349;52.528;19.760;2023-03-21T01:03:19;23.23;40.46
67502;SHT30;54349;52.528;19.760;2023-03-21T01:05:52;23.20;40.39
67502;SHT30;54349;52.528;19.760;2023-03-21T01:08:32;23.18;40.36
67502;SHT30;54349;52.528;19.760;2023-03-21T01:11:23;23.17;40.31
67502;SHT30;54349;52.528;19.760;2023-03-21T01:13:55;23.14;40.28
67502;SHT30;54349;52.528;19.760;2023-03-21T01:16:46;23.12;40.20
67502;SHT30;54349;52.528;19.760;2023-03-21T01:19:17;23.11;40.17
67502;SHT30;54349;52.528;19.760;2023-03-21T01:22:07;23.06;40.14
67502;SHT30;54349;52.528;19.760;2023-03-21T01:24:36;23.04;40.16
67502;SHT30;54349;52.528;19.760;2023-03-21T01:27:20;23.01;40.11
67502;SHT30;54349;52.528;19.760;2023-03-21T01:29:49;22.99;40.11
67502;SHT30;54349;52.528;19.760;2023-03-21T01:32:17;22.98;40.10
67502;SHT30;54349;52.528;19.760;2023-03-21T01:34:45;22.95;40.08
67502;SHT30;54349;52.528;19.760;2023-03-21T01:37:16;22.93;40.06
67502;SHT30;54349;52.528;19.760;2023-03-21T01:39:49;22.92;40.04
67502;SHT30;54349;52.528;19.760;2023-03-21T01:42:18;22.90;40.01
67502;SHT30;54349;52.528;19.760;2023-03-21T01:45:57;22.87;40.00
67502;SHT30;54349;52.528;19.760;2023-03-21T01:48:17;22.85;39.97
67502;SHT30;54349;52.528;19.760;2023-03-21T01:50:52;22.82;39.93
67502;SHT30;54349;52.528;19.760;2023-03-21T01:53:37;22.80;39.98
67502;SHT30;54349;52.528;19.760;2023-03-21T01:56:11;22.77;39.94
67502;SHT30;54349;52.528;19.760;2023-03-21T01:59:16;22.75;39.96
67502;SHT30;54349;52.528;19.760;2023-03-21T02:02:16;22.72;39.96
67502;SHT30;54349;52.528;19.760;2023-03-21T02:05:32;22.70;39.95
67502;SHT30;54349;52.528;19.760;2023-03-21T02:08:30;22.67;39.94
67502;SHT30;54349;52.528;19.760;2023-03-21T02:11:10;22.65;39.94
67502;SHT30;54349;52.528;19.760;2023-03-21T02:13:41;22.62;39.96
67502;SHT30;54349;52.528;19.760;2023-03-21T02:16:36;22.58;39.95
67502;SHT30;54349;52.528;19.760;2023-03-21T02:19:23;22.56;40.00
67502;SHT30;54349;52.528;19.760;2023-03-21T02:28:32;22.50;39.99
67502;SHT30;54349;52.528;19.760;2023-03-21T02:41:34;22.41;40.00
67502;SHT30;54349;52.528;19.760;2023-03-21T02:44:18;22.40;39.99
67502;SHT30;54349;52.528;19.760;2023-03-21T02:52:52;22.33;40.00
67502;SHT30;54349;52.528;19.760;2023-03-21T02:55:23;22.33;40.00
67502;SHT30;54349;52.528;19.760;2023-03-21T02:57:58;22.32;39.98
67502;SHT30;54349;52.528;19.760;2023-03-21T03:00:49;22.33;39.99
67502;SHT30;54349;52.528;19.760;2023-03-21T03:03:31;22.30;39.98
67502;SHT30;54349;52.528;19.760;2023-03-21T03:06:08;22.28;39.94
67502;SHT30;54349;52.528;19.760;2023-03-21T03:12:11;22.24;39.98
67502;SHT30;54349;52.528;19.760;2023-03-21T03:15:10;22.23;39.99
67502;SHT30;54349;52.528;19.760;2023-03-21T03:18:05;22.22;39.97
67502;SHT30;54349;52.528;19.760;2023-03-21T03:21:17;22.22;39.98
67502;SHT30;54349;52.528;19.760;2023-03-21T03:24:11;22.20;39.99
67502;SHT30;54349;52.528;19.760;2023-03-21T03:29:27;22.17;39.96
67502;SHT30;54349;52.528;19.760;2023-03-21T03:32:00;22.15;39.98
67502;SHT30;54349;52.528;19.760;2023-03-21T03:34:36;22.15;39.97
67502;SHT30;54349;52.528;19.760;2023-03-21T03:37:18;22.14;39.96
67502;SHT30;54349;52.528;19.760;2023-03-21T03:42:42;22.11;39.98
67502;SHT30;54349;52.528;19.760;2023-03-21T03:45:22;22.07;40.00
67502;SHT30;54349;52.528;19.760;2023-03-21T03:48:12;22.05;40.00
67502;SHT30;54349;52.528;19.760;2023-03-21T03:51:19;22.02;40.04
67502;SHT30;54349;52.528;19.760;2023-03-21T03:54:10;22.02;40.02
67502;SHT30;54349;52.528;19.760;2023-03-21T03:56:46;22.02;40.02
67502;SHT30;54349;52.528;19.760;2023-03-21T03:59:15;22.01;40.02
67502;SHT30;54349;52.528;19.760;2023-03-21T04:02:05;21.99;40.00
67502;SHT30;54349;52.528;19.760;2023-03-21T04:04:34;21.96;40.01
67502;SHT30;54349;52.528;19.760;2023-03-21T04:07:04;21.95;40.04
67502;SHT30;54349;52.528;19.760;2023-03-21T04:09:33;21.93;40.06
67502;SHT30;54349;52.528;19.760;2023-03-21T04:12:12;21.92;40.00
67502;SHT30;54349;52.528;19.760;2023-03-21T04:14:42;21.90;40.03
67502;SHT30;54349;52.528;19.760;2023-03-21T04:17:14;21.88;40.01
67502;SHT30;54349;52.528;19.760;2023-03-21T04:19:44;21.88;40.02
67502;SHT30;54349;52.528;19.760;2023-03-21T04:22:12;21.87;40.04
67502;SHT30;54349;52.528;19.760;2023-03-21T04:24:43;21.87;40.00
67502;SHT30;54349;52.528;19.760;2023-03-21T04:27:14;21.88;40.00
67502;SHT30;54349;52.528;19.760;2023-03-21T04:30:02;21.88;39.98
67502;SHT30;54349;52.528;19.760;2023-03-21T04:32:48;21.92;39.92
67502;SHT30;54349;52.528;19.760;2023-03-21T04:35:22;22.00;39.77
67502;SHT30;54349;52.528;19.760;2023-03-21T04:37:52;22.14;39.49
67502;SHT30;54349;52.528;19.760;2023-03-21T04:40:21;22.27;39.30
67502;SHT30;54349;52.528;19.760;2023-03-21T04:42:54;22.39;39.12
67502;SHT30;54349;52.528;19.760;2023-03-21T04:45:23;22.46;39.00
67502;SHT30;54349;52.528;19.760;2023-03-21T04:47:52;22.52;38.90
67502;SHT30;54349;52.528;19.760;2023-03-21T04:50:20;22.61;38.73
67502;SHT30;54349;52.528;19.760;2023-03-21T04:52:49;22.71;38.57
67502;SHT30;54349;52.528;19.760;2023-03-21T04:55:17;22.79;38.44
67502;SHT30;54349;52.528;19.760;2023-03-21T04:57:48;22.86;38.31
67502;SHT30;54349;52.528;19.760;2023-03-21T05:00:17;22.92;38.22
67502;SHT30;54349;52.528;19.760;2023-03-21T05:02:47;22.97;38.12
67502;SHT30;54349;52.528;19.760;2023-03-21T05:05:16;22.98;38.12
67502;SHT30;54349;52.528;19.760;2023-03-21T05:07:45;23.03;38.05
67502;SHT30;54349;52.528;19.760;2023-03-21T05:10:13;23.07;37.99
67502;SHT30;54349;52.528;19.760;2023-03-21T05:12:43;23.11;37.93
67502;SHT30;54349;52.528;19.760;2023-03-21T05:15:13;23.16;37.83
67502;SHT30;54349;52.528;19.760;2023-03-21T05:17:42;23.20;37.80
67502;SHT30;54349;52.528;19.760;2023-03-21T05:20:12;23.22;37.77
67502;SHT30;54349;52.528;19.760;2023-03-21T05:22:42;23.24;37.71
67502;SHT30;54349;52.528;19.760;2023-03-21T05:25:14;23.24;37.69
67502;SHT30;54349;52.528;19.760;2023-03-21T05:27:57;23.26;37.68
67502;SHT30;54349;52.528;19.760;2023-03-21T05:30:29;23.28;37.65
67502;SHT30;54349;52.528;19.760;2023-03-21T05:32:59;23.29;37.63
67502;SHT30;54349;52.528;19.760;2023-03-21T05:35:28;23.31;37.60
67502;SHT30;54349;52.528;19.760;2023-03-21T05:37:58;23.32;37.60
67502;SHT30;54349;52.528;19.760;2023-03-21T05:40:29;23.33;37.60
67502;SHT30;54349;52.528;19.760;2023-03-21T05:42:58;23.34;37.60
67502;SHT30;54349;52.528;19.760;2023-03-21T05:45:26;23.32;37.63
67502;SHT30;54349;52.528;19.760;2023-03-21T05:47:55;23.26;37.71
67502;SHT30;54349;52.528;19.760;2023-03-21T05:50:26;23.21;37.88
67502;SHT30;54349;52.528;19.760;2023-03-21T05:53:10;23.16;38.28
67502;SHT30;54349;52.528;19.760;2023-03-21T05:55:39;23.11;38.40
67502;SHT30;54349;52.528;19.760;2023-03-21T05:58:11;23.07;38.42
67502;SHT30;54349;52.528;19.760;2023-03-21T06:00:40;23.05;38.42
67502;SHT30;54349;52.528;19.760;2023-03-21T06:03:16;23.01;38.47
67502;SHT30;54349;52.528;19.760;2023-03-21T06:05:58;22.98;38.49
67502;SHT30;54349;52.528;19.760;2023-03-21T06:08:33;22.96;38.49
67502;SHT30;54349;52.528;19.760;2023-03-21T06:11:01;22.93;38.51
67502;SHT30;54349;52.528;19.760;2023-03-21T06:13:32;22.91;38.52
67502;SHT30;54349;52.528;19.760;2023-03-21T06:16:00;22.90;38.57
67502;SHT30;54349;52.528;19.760;2023-03-21T06:18:28;22.86;38.57
67502;SHT30;54349;52.528;19.760;2023-03-21T06:21:23;22.84;38.59
67502;SHT30;54349;52.528;19.760;2023-03-21T06:23:53;22.82;38.66
67502;SHT30;54349;52.528;19.760;2023-03-21T06:26:22;22.79;38.69
67502;SHT30;54349;52.528;19.760;2023-03-21T06:28:51;22.77;38.71
67502;SHT30;54349;52.528;19.760;2023-03-21T06:31:21;22.75;38.74
67502;SHT30;54349;52.528;19.760;2023-03-21T06:33:50;22.73;38.77
67502;SHT30;54349;52.528;19.760;2023-03-21T06:36:19;22.72;38.79
67502;SHT30;54349;52.528;19.760;2023-03-21T06:38:48;22.70;38.79
67502;SHT30;54349;52.528;19.760;2023-03-21T06:41:16;22.69;38.80
67502;SHT30;54349;52.528;19.760;2023-03-21T06:43:53;22.68;38.79
67502;SHT30;54349;52.528;19.760;2023-03-21T06:46:21;22.68;38.78
67502;SHT30;54349;52.528;19.760;2023-03-21T06:48:50;22.68;38.78
67502;SHT30;54349;52.528;19.760;2023-03-21T06:51:20;22.66;38.81
67502;SHT30;54349;52.528;19.760;2023-03-21T06:54:02;22.65;38.82
67502;SHT30;54349;52.528;19.760;2023-03-21T06:56:40;22.68;38.71
67502;SHT30;54349;52.528;19.760;2023-03-21T06:59:11;22.72;38.69
67502;SHT30;54349;52.528;19.760;2023-03-21T07:01:47;22.75;38.62
67502;SHT30;54349;52.528;19.760;2023-03-21T07:04:16;22.77;38.60
67502;SHT30;54349;52.528;19.760;2023-03-21T07:06:44;22.75;38.69
67502;SHT30;54349;52.528;19.760;2023-03-21T07:09:13;22.72;38.77
67502;SHT30;54349;52.528;19.760;2023-03-21T07:11:45;22.71;38.74
67502;SHT30;54349;52.528;19.760;2023-03-21T07:14:14;22.75;38.61
67502;SHT30;54349;52.528;19.760;2023-03-21T07:16:42;22.81;38.53
67502;SHT30;54349;52.528;19.760;2023-03-21T07:19:12;22.85;38.47
67502;SHT30;54349;52.528;19.760;2023-03-21T07:21:42;22.90;38.39
67502;SHT30;54349;52.528;19.760;2023-03-21T07:24:11;22.93;38.32
67502;SHT30;54349;52.528;19.760;2023-03-21T07:26:39;22.96;38.28
67502;SHT30;54349;52.528;19.760;2023-03-21T07:29:07;22.98;38.28
67502;SHT30;54349;52.528;19.760;2023-03-21T07:31:36;22.98;38.33
67502;SHT30;54349;52.528;19.760;2023-03-21T07:34:06;22.98;38.22
67502;SHT30;54349;52.528;19.760;2023-03-21T07:36:35;23.01;38.20
67502;SHT30;54349;52.528;19.760;2023-03-21T07:39:03;23.04;38.18
67502;SHT30;54349;52.528;19.760;2023-03-21T07:41:32;23.08;38.10
67502;SHT30;54349;52.528;19.760;2023-03-21T07:44:11;23.09;38.10
67502;SHT30;54349;52.528;19.760;2023-03-21T07:46:39;23.10;38.06
67502;SHT30;54349;52.528;19.760;2023-03-21T07:49:07;23.12;38.03
67502;SHT30;54349;52.528;19.760;2023-03-21T07:51:36;23.12;38.08
67502;SHT30;54349;52.528;19.760;2023-03-21T07:54:04;23.12;38.05
67502;SHT30;54349;52.528;19.760;2023-03-21T07:56:33;23.15;38.09
67502;SHT30;54349;52.528;19.760;2023-03-21T07:59:01;23.15;38.08
67502;SHT30;54349;52.528;19.760;2023-03-21T08:01:32;23.16;38.08
67502;SHT30;54349;52.528;19.760;2023-03-21T08:04:01;23.16;38.10
67502;SHT30;54349;52.528;19.760;2023-03-21T08:06:30;23.17;38.09
67502;SHT30;54349;52.528;19.760;2023-03-21T08:08:59;23.16;38.10
67502;SHT30;54349;52.528;19.760;2023-03-21T08:11:28;23.16;38.09
67502;SHT30;54349;52.528;19.760;2023-03-21T08:14:01;23.17;38.10
67502;SHT30;54349;52.528;19.760;2023-03-21T08:16:31;23.16;38.11
67502;SHT30;54349;52.528;19.760;2023-03-21T08:19:00;23.15;38.14
67502;SHT30;54349;52.528;19.760;2023-03-21T08:21:28;23.16;38.16
67502;SHT30;54349;52.528;19.760;2023-03-21T08:23:56;23.15;38.16
67502;SHT30;54349;52.528;19.760;2023-03-21T08:26:25;23.14;38.14
67502;SHT30;54349;52.528;19.760;2023-03-21T08:28:53;23.13;38.18
67502;SHT30;54349;52.528;19.760;2023-03-21T08:31:22;23.13;38.15
67502;SHT30;54349;52.528;19.760;2023-03-21T08:33:51;23.12;38.17
67502;SHT30;54349;52.528;19.760;2023-03-21T08:36:21;23.11;38.18
67502;SHT30;54349;52.528;19.760;2023-03-21T08:38:51;23.10;38.18
67502;SHT30;54349;52.528;19.760;2023-03-21T08:41:31;23.09;38.17
67502;SHT30;54349;52.528;19.760;2023-03-21T08:44:02;23.08;38.20
67502;SHT30;54349;52.528;19.760;2023-03-21T08:46:33;23.08;38.20
67502;SHT30;54349;52.528;19.760;2023-03-21T08:49:01;23.08;38.19
67502;SHT30;54349;52.528;19.760;2023-03-21T08:51:29;23.07;38.21
67502;SHT30;54349;52.528;19.760;2023-03-21T08:53:58;23.06;38.19
67502;SHT30;54349;52.528;19.760;2023-03-21T08:56:26;23.05;38.25
67502;SHT30;54349;52.528;19.760;2023-03-21T08:58:54;23.00;38.38
67502;SHT30;54349;52.528;19.760;2023-03-21T09:01:23;22.98;38.40
67502;SHT30;54349;52.528;19.760;2023-03-21T09:03:51;22.97;38.40
67502;SHT30;54349;52.528;19.760;2023-03-21T09:06:19;22.97;38.38
67502;SHT30;54349;52.528;19.760;2023-03-21T09:08:48;22.98;38.33
67502;SHT30;54349;52.528;19.760;2023-03-21T09:11:20;22.99;38.29
67502;SHT30;54349;52.528;19.760;2023-03-21T09:13:48;22.99;38.31
67502;SHT30;54349;52.528;19.760;2023-03-21T09:16:17;22.99;38.30
67502;SHT30;54349;52.528;19.760;2023-03-21T09:18:45;23.00;38.31
67502;SHT30;54349;52.528;19.760;2023-03-21T09:21:17;23.01;38.30
67502;SHT30;54349;52.528;19.760;2023-03-21T09:23:47;23.02;38.33
67502;SHT30;54349;52.528;19.760;2023-03-21T09:26:22;23.04;38.30
67502;SHT30;54349;52.528;19.760;2023-03-21T09:28:53;23.05;38.34
67502;SHT30;54349;52.528;19.760;2023-03-21T09:31:23;23.06;38.37
67502;SHT30;54349;52.528;19.760;2023-03-21T09:33:51;23.07;38.40
67502;SHT30;54349;52.528;19.760;2023-03-21T09:36:22;23.08;38.41
67502;SHT30;54349;52.528;19.760;2023-03-21T09:38:54;23.08;38.44
67502;SHT30;54349;52.528;19.760;2023-03-21T09:41:36;23.09;38.45
67502;SHT30;54349;52.528;19.760;2023-03-21T09:44:41;23.10;38.44
67502;SHT30;54349;52.528;19.760;2023-03-21T09:50:03;23.11;38.40
67502;SHT30;54349;52.528;19.760;2023-03-21T09:55:24;23.12;38.30
67502;SHT30;54349;52.528;19.760;2023-03-21T10:00:34;23.12;38.24
67502;SHT30;54349;52.528;19.760;2023-03-21T10:06:04;23.13;38.24
67502;SHT30;54349;52.528;19.760;2023-03-21T10:08:44;23.12;38.21
67502;SHT30;54349;52.528;19.760;2023-03-21T10:11:18;23.14;38.20
67502;SHT30;54349;52.528;19.760;2023-03-21T10:13:55;23.15;38.16
67502;SHT30;54349;52.528;19.760;2023-03-21T10:16:34;23.15;38.15
67502;SHT30;54349;52.528;19.760;2023-03-21T10:19:18;23.15;38.13
67502;SHT30;54349;52.528;19.760;2023-03-21T10:21:48;23.15;38.14
67502;SHT30;54349;52.528;19.760;2023-03-21T10:24:28;23.15;38.13
67502;SHT30;54349;52.528;19.760;2023-03-21T10:27:01;23.16;38.12
67502;SHT30;54349;52.528;19.760;2023-03-21T10:29:36;23.17;38.14
67502;SHT30;54349;52.528;19.760;2023-03-21T10:32:11;23.17;38.15
67502;SHT30;54349;52.528;19.760;2023-03-21T10:34:45;23.16;38.16
67502;SHT30;54349;52.528;19.760;2023-03-21T10:37:20;23.17;38.18
67502;SHT30;54349;52.528;19.760;2023-03-21T10:39:53;23.16;38.17
67502;SHT30;54349;52.528;19.760;2023-03-21T10:42:24;23.16;38.19
67502;SHT30;54349;52.528;19.760;2023-03-21T10:45:00;23.15;38.19
67502;SHT30;54349;52.528;19.760;2023-03-21T10:47:32;23.16;38.20
67502;SHT30;54349;52.528;19.760;2023-03-21T10:50:07;23.15;38.18
67502;SHT30;54349;52.528;19.760;2023-03-21T10:52:47;23.15;38.16
67502;SHT30;54349;52.528;19.760;2023-03-21T10:58:05;23.15;38.12
67502;SHT30;54349;52.528;19.760;2023-03-21T11:00:39;23.15;38.10
67502;SHT30;54349;52.528;19.760;2023-03-21T11:03:30;23.17;38.09
67502;SHT30;54349;52.528;19.760;2023-03-21T11:06:07;23.17;38.06
67502;SHT30;54349;52.528;19.760;2023-03-21T11:08:54;23.17;38.04
67502;SHT30;54349;52.528;19.760;2023-03-21T11:11:36;23.18;38.03
67502;SHT30;54349;52.528;19.760;2023-03-21T11:14:11;23.18;37.99
67502;SHT30;54349;52.528;19.760;2023-03-21T11:16:54;23.19;37.93
67502;SHT30;54349;52.528;19.760;2023-03-21T11:19:34;23.19;37.88
67502;SHT30;54349;52.528;19.760;2023-03-21T11:22:04;23.21;37.87
67502;SHT30;54349;52.528;19.760;2023-03-21T11:24:34;23.21;37.86
67502;SHT30;54349;52.528;19.760;2023-03-21T11:27:06;23.22;37.89
67502;SHT30;54349;52.528;19.760;2023-03-21T11:29:39;23.22;37.84
67502;SHT30;54349;52.528;19.760;2023-03-21T11:37:51;23.24;37.79
67502;SHT30;54349;52.528;19.760;2023-03-21T11:42:58;23.25;37.71
67502;SHT30;54349;52.528;19.760;2023-03-21T11:45:32;23.25;37.67
67502;SHT30;54349;52.528;19.760;2023-03-21T11:48:06;23.26;37.66
67502;SHT30;54349;52.528;19.760;2023-03-21T11:50:42;23.26;37.61
67502;SHT30;54349;52.528;19.760;2023-03-21T11:56:31;23.26;37.59
67502;SHT30;54349;52.528;19.760;2023-03-21T12:05:35;23.27;37.49
67502;SHT30;54349;52.528;19.760;2023-03-21T12:20:39;23.26;37.39
67502;SHT30;54349;52.528;19.760;2023-03-21T12:38:31;23.27;37.22
67502;SHT30;54349;52.528;19.760;2023-03-21T12:44:13;23.31;37.24
67502;SHT30;54349;52.528;19.760;2023-03-21T12:47:18;23.33;37.24
67502;SHT30;54349;52.528;19.760;2023-03-21T12:49:58;23.34;37.27
67502;SHT30;54349;52.528;19.760;2023-03-21T12:52:46;23.34;37.20
67502;SHT30;54349;52.528;19.760;2023-03-21T12:55:28;23.35;37.21
67502;SHT30;54349;52.528;19.760;2023-03-21T13:00:58;23.38;37.10
67502;SHT30;54349;52.528;19.760;2023-03-21T13:03:32;23.39;37.07
67502;SHT30;54349;52.528;19.760;2023-03-21T13:06:12;23.41;37.02
67502;SHT30;54349;52.528;19.760;2023-03-21T13:15:17;23.48;36.69
67502;SHT30;54349;52.528;19.760;2023-03-21T13:20:56;23.52;36.63
67502;SHT30;54349;52.528;19.760;2023-03-21T13:23:37;23.54;36.61
67502;SHT30;54349;52.528;19.760;2023-03-21T13:26:07;23.56;36.55
67502;SHT30;54349;52.528;19.760;2023-03-21T13:28:38;23.57;36.50
67502;SHT30;54349;52.528;19.760;2023-03-21T13:31:18;23.58;36.46
67502;SHT30;54349;52.528;19.760;2023-03-21T13:34:06;23.59;36.38
67502;SHT30;54349;52.528;19.760;2023-03-21T13:36:43;23.59;36.35
67502;SHT30;54349;52.528;19.760;2023-03-21T13:39:16;23.59;36.31
67502;SHT30;54349;52.528;19.760;2023-03-21T13:42:00;23.60;36.31
67502;SHT30;54349;52.528;19.760;2023-03-21T13:44:40;23.60;36.27
67502;SHT30;54349;52.528;19.760;2023-03-21T13:47:27;23.60;36.19
67502;SHT30;54349;52.528;19.760;2023-03-21T13:50:22;23.60;36.17
67502;SHT30;54349;52.528;19.760;2023-03-21T13:53:10;23.59;36.11
67502;SHT30;54349;52.528;19.760;2023-03-21T13:55:58;23.61;36.04
67502;SHT30;54349;52.528;19.760;2023-03-21T14:07:05;23.59;35.92
67502;SHT30;54349;52.528;19.760;2023-03-21T14:09:48;23.59;35.92
67502;SHT30;54349;52.528;19.760;2023-03-21T14:12:39;23.59;35.95
67502;SHT30;54349;52.528;19.760;2023-03-21T14:15:23;23.58;35.98
67502;SHT30;54349;52.528;19.760;2023-03-21T14:18:19;23.57;36.00
67502;SHT30;54349;52.528;19.760;2023-03-21T14:21:21;23.58;35.99
67502;SHT30;54349;52.528;19.760;2023-03-21T14:23:56;23.58;35.98
67502;SHT30;54349;52.528;19.760;2023-03-21T14:26:39;23.57;35.99
67502;SHT30;54349;52.528;19.760;2023-03-21T14:29:24;23.55;35.95
67502;SHT30;54349;52.528;19.760;2023-03-21T14:31:58;23.55;35.98
67502;SHT30;54349;52.528;19.760;2023-03-21T14:34:30;23.55;36.00
67502;SHT30;54349;52.528;19.760;2023-03-21T14:37:05;23.55;36.15
67502;SHT30;54349;52.528;19.760;2023-03-21T14:39:37;23.54;36.29
67502;SHT30;54349;52.528;19.760;2023-03-21T14:42:06;23.53;36.40
67502;SHT30;54349;52.528;19.760;2023-03-21T14:44:47;23.53;36.50
67502;SHT30;54349;52.528;19.760;2023-03-21T14:47:23;23.53;36.56
67502;SHT30;54349;52.528;19.760;2023-03-21T14:49:58;23.52;36.51
67502;SHT30;54349;52.528;19.760;2023-03-21T14:52:31;23.53;36.51
67502;SHT30;54349;52.528;19.760;2023-03-21T14:55:02;23.55;36.46
67502;SHT30;54349;52.528;19.760;2023-03-21T14:57:41;23.57;36.36
67502;SHT30;54349;52.528;19.760;2023-03-21T15:00:13;23.58;36.31
67502;SHT30;54349;52.528;19.760;2023-03-21T15:02:50;23.59;36.27
67502;SHT30;54349;52.528;19.760;2023-03-21T15:05:33;23.60;36.27
67502;SHT30;54349;52.528;19.760;2023-03-21T15:08:19;23.62;36.21
67502;SHT30;54349;52.528;19.760;2023-03-21T15:11:03;23.63;36.17
67502;SHT30;54349;52.528;19.760;2023-03-21T15:13:46;23.64;36.11
67502;SHT30;54349;52.528;19.760;2023-03-21T15:16:21;23.65;36.07
67502;SHT30;54349;52.528;19.760;2023-03-21T15:18:50;23.66;36.01
67502;SHT30;54349;52.528;19.760;2023-03-21T15:21:24;23.67;35.99
67502;SHT30;54349;52.528;19.760;2023-03-21T15:24:08;23.68;35.95
67502;SHT30;54349;52.528;19.760;2023-03-21T15:26:45;23.69;35.92
67502;SHT30;54349;52.528;19.760;2023-03-21T15:29:17;23.69;35.91
67502;SHT30;54349;52.528;19.760;2023-03-21T15:31:46;23.69;35.89
67502;SHT30;54349;52.528;19.760;2023-03-21T15:34:20;23.69;35.88
67502;SHT30;54349;52.528;19.760;2023-03-21T15:36:56;23.70;35.95
67502;SHT30;54349;52.528;19.760;2023-03-21T15:39:32;23.70;36.09
67502;SHT30;54349;52.528;19.760;2023-03-21T15:45:24;23.71;36.04
67502;SHT30;54349;52.528;19.760;2023-03-21T15:48:01;23.72;35.99
67502;SHT30;54349;52.528;19.760;2023-03-21T15:50:37;23.72;35.94
67502;SHT30;54349;52.528;19.760;2023-03-21T15:53:15;23.70;35.91
67502;SHT30;54349;52.528;19.760;2023-03-21T15:55:47;23.70;35.84
67502;SHT30;54349;52.528;19.760;2023-03-21T15:58:21;23.70;35.81
67502;SHT30;54349;52.528;19.760;2023-03-21T16:01:04;23.69;35.79
67502;SHT30;54349;52.528;19.760;2023-03-21T16:03:43;23.68;35.75
67502;SHT30;54349;52.528;19.760;2023-03-21T16:09:07;23.67;35.72
67502;SHT30;54349;52.528;19.760;2023-03-21T16:11:47;23.65;35.69
67502;SHT30;54349;52.528;19.760;2023-03-21T16:14:22;23.65;35.68
67502;SHT30;54349;52.528;19.760;2023-03-21T16:16:56;23.64;35.66
67502;SHT30;54349;52.528;19.760;2023-03-21T16:19:25;23.63;35.62
67502;SHT30;54349;52.528;19.760;2023-03-21T16:21:56;23.61;35.61
67502;SHT30;54349;52.528;19.760;2023-03-21T16:24:24;23.60;35.58
67502;SHT30;54349;52.528;19.760;2023-03-21T16:26:53;23.58;35.54
67502;SHT30;54349;52.528;19.760;2023-03-21T16:29:23;23.57;35.54
67502;SHT30;54349;52.528;19.760;2023-03-21T16:31:53;23.56;35.56
67502;SHT30;54349;52.528;19.760;2023-03-21T16:34:23;23.55;35.54
67502;SHT30;54349;52.528;19.760;2023-03-21T16:36:51;23.53;35.51
67502;SHT30;54349;52.528;19.760;2023-03-21T16:39:22;23.52;35.51
67502;SHT30;54349;52.528;19.760;2023-03-21T16:41:53;23.51;35.52
67502;SHT30;54349;52.528;19.760;2023-03-21T16:44:22;23.50;35.53
67502;SHT30;54349;52.528;19.760;2023-03-21T16:46:50;23.49;35.49
67502;SHT30;54349;52.528;19.760;2023-03-21T16:49:20;23.47;35.49
67502;SHT30;54349;52.528;19.760;2023-03-21T16:51:53;23.46;35.48
67502;SHT30;54349;52.528;19.760;2023-03-21T16:54:24;23.44;35.49
67502;SHT30;54349;52.528;19.760;2023-03-21T16:56:53;23.43;35.49
67502;SHT30;54349;52.528;19.760;2023-03-21T16:59:24;23.42;35.46
67502;SHT30;54349;52.528;19.760;2023-03-21T17:01:52;23.40;35.44
67502;SHT30;54349;52.528;19.760;2023-03-21T17:04:20;23.39;35.50
67502;SHT30;54349;52.528;19.760;2023-03-21T17:06:52;23.36;35.48
67502;SHT30;54349;52.528;19.760;2023-03-21T17:09:22;23.36;35.43
67502;SHT30;54349;52.528;19.760;2023-03-21T17:11:56;23.33;35.41
67502;SHT30;54349;52.528;19.760;2023-03-21T17:14:24;23.32;35.43
67502;SHT30;54349;52.528;19.760;2023-03-21T17:16:53;23.31;35.43
67502;SHT30;54349;52.528;19.760;2023-03-21T17:19:21;23.30;35.41
67502;SHT30;54349;52.528;19.760;2023-03-21T17:21:54;23.28;35.46
67502;SHT30;54349;52.528;19.760;2023-03-21T17:24:23;23.26;35.47
67502;SHT30;54349;52.528;19.760;2023-03-21T17:26:53;23.26;35.49
67502;SHT30;54349;52.528;19.760;2023-03-21T17:29:22;23.24;35.45
67502;SHT30;54349;52.528;19.760;2023-03-21T17:31:51;23.24;35.44
67502;SHT30;54349;52.528;19.760;2023-03-21T17:34:19;23.22;35.48
67502;SHT30;54349;52.528;19.760;2023-03-21T17:36:48;23.21;35.43
67502;SHT30;54349;52.528;19.760;2023-03-21T17:39:19;23.20;35.44
67502;SHT30;54349;52.528;19.760;2023-03-21T17:41:53;23.18;35.43
67502;SHT30;54349;52.528;19.760;2023-03-21T17:44:23;23.17;35.45
67502;SHT30;54349;52.528;19.760;2023-03-21T17:46:52;23.16;35.47
67502;SHT30;54349;52.528;19.760;2023-03-21T17:49:21;23.17;35.48
67502;SHT30;54349;52.528;19.760;2023-03-21T17:51:50;23.16;35.43
67502;SHT30;54349;52.528;19.760;2023-03-21T17:54:20;23.14;35.42
67502;SHT30;54349;52.528;19.760;2023-03-21T17:56:49;23.13;35.40
67502;SHT30;54349;52.528;19.760;2023-03-21T17:59:18;23.12;35.37
67502;SHT30;54349;52.528;19.760;2023-03-21T18:01:47;23.11;35.37
67502;SHT30;54349;52.528;19.760;2023-03-21T18:04:15;23.12;35.40